Rechercher aéroport 
image banner adimage banner adimage banner ad
image banner ad

CN33 - Airport Imperial Bldg Helistop

Situé à El Segundo, United States

ICAO - CN33, IATA -

Données fournies par Airmate  

Information générale

Coordonnées: N33°55'49" W118°23'49"
Élévation : 238 feet MSL.
Variation magnétique : 14° East
Voir autres Aéroports à California

Données opérationnelles

Special qualification required
Heure actuelle UTC:
Heure actuelle locale:
Météo à : KLAX - Los Angeles Intl ( 2 km )
METAR: KLAX 292053Z 25014KT 8SM FEW027 FEW090 SCT160 22/15 A2990 RMK AO2 SLP125 T02170150 58011 $
TAF: KLAX 292127Z 2921/3024 25012KT P6SM FEW009 SCT090 FM300400 VRB03KT P6SM SKC FM300900 VRB03KT P6SM OVC008 FM301700 VRB03KT P6SM SCT010 FM302000 26012KT P6SM SCT010
Voir NOTAMs / SUP AIP / TFR affectant cet aéroport [VIEW]
Fréquences de communication: [VIEW]

Pistes:

Coordonnées de l'aéroport

Adresse: El Segundo United States

Vue satellite de CN33